createdAt,value
2022-08-19T00:01:45.948Z,4.63
2022-08-19T00:04:24.540Z,4.80
2022-08-19T00:06:52.611Z,4.55
2022-08-19T00:09:21.707Z,5.10
2022-08-19T00:11:50.270Z,4.80
2022-08-19T00:14:19.277Z,4.43
2022-08-19T00:16:48.648Z,5.00
2022-08-19T00:19:17.606Z,4.95
2022-08-19T00:21:45.720Z,4.50
2022-08-19T00:24:15.415Z,5.13
2022-08-19T00:26:43.927Z,5.47
2022-08-19T00:29:13.375Z,5.00
2022-08-19T00:31:43.007Z,5.82
2022-08-19T00:34:11.511Z,4.85
2022-08-19T00:36:40.644Z,5.18
2022-08-19T00:39:08.909Z,4.63
2022-08-19T00:41:36.861Z,4.20
2022-08-19T00:44:15.981Z,4.18
2022-08-19T00:46:55.610Z,4.25
2022-08-19T00:49:29.280Z,4.20
2022-08-19T00:51:59.957Z,4.57
2022-08-19T00:54:31.278Z,4.65
2022-08-19T00:57:00.838Z,4.38
2022-08-19T00:59:56.122Z,4.05
2022-08-19T01:02:18.126Z,4.10
2022-08-19T01:04:45.856Z,3.33
2022-08-19T01:07:15.082Z,3.45
2022-08-19T01:09:45.424Z,4.03
2022-08-19T01:12:13.398Z,3.55
2022-08-19T01:14:41.981Z,3.58
2022-08-19T01:17:11.602Z,4.07
2022-08-19T01:19:43.919Z,4.28
2022-08-19T01:22:30.163Z,4.35
2022-08-19T01:25:00.834Z,4.55
2022-08-19T01:27:35.395Z,4.32
2022-08-19T01:30:13.944Z,4.80
2022-08-19T01:32:42.000Z,5.18
2022-08-19T01:35:09.994Z,5.07
2022-08-19T01:37:52.949Z,5.82
2022-08-19T01:40:22.335Z,5.32
2022-08-19T01:42:51.147Z,4.90
2022-08-19T01:45:19.401Z,5.50
2022-08-19T01:48:01.211Z,6.03
2022-08-19T01:50:31.668Z,6.53
2022-08-19T01:53:06.363Z,5.60
2022-08-19T01:55:41.327Z,6.57
2022-08-19T01:58:12.040Z,6.55
2022-08-19T02:00:40.234Z,6.47
2022-08-19T02:03:09.933Z,6.00
2022-08-19T02:05:38.085Z,6.32
2022-08-19T02:08:06.467Z,7.57
2022-08-19T02:10:34.260Z,6.13
2022-08-19T02:13:01.999Z,5.10
2022-08-19T02:15:29.974Z,6.05
2022-08-19T02:17:57.797Z,5.45
2022-08-19T02:20:25.908Z,5.60
2022-08-19T02:22:54.013Z,5.68
2022-08-19T02:25:22.067Z,5.90
2022-08-19T02:27:50.235Z,6.13
2022-08-19T02:30:20.661Z,5.43
2022-08-19T02:32:48.391Z,5.33
2022-08-19T02:35:16.400Z,5.68
2022-08-19T02:38:03.635Z,6.03
2022-08-19T02:40:35.626Z,5.70
2022-08-19T02:43:06.191Z,5.40
2022-08-19T02:45:36.150Z,5.30
2022-08-19T02:48:12.696Z,5.43
2022-08-19T02:50:59.550Z,5.22
2022-08-19T02:53:29.159Z,5.10
2022-08-19T02:55:57.404Z,4.57
2022-08-19T02:58:25.367Z,5.95
2022-08-19T03:00:54.930Z,4.80
2022-08-19T03:03:22.811Z,5.50
2022-08-19T03:05:56.506Z,5.32
2022-08-19T03:08:26.647Z,5.50
2022-08-19T03:10:55.182Z,4.97
2022-08-19T03:13:23.124Z,5.15
2022-08-19T03:15:51.303Z,5.05
2022-08-19T03:18:19.073Z,4.97
2022-08-19T03:20:48.380Z,4.90
2022-08-19T03:23:17.449Z,4.75
2022-08-19T03:25:59.207Z,5.13
2022-08-19T03:28:36.555Z,5.10
2022-08-19T03:31:41.675Z,4.28
2022-08-19T03:33:57.663Z,4.50
2022-08-19T03:36:26.783Z,5.57
2022-08-19T03:39:01.961Z,4.70
2022-08-19T03:41:44.361Z,4.15
2022-08-19T03:44:19.491Z,4.95
2022-08-19T03:46:48.266Z,5.43
2022-08-19T03:49:16.191Z,5.22
2022-08-19T03:51:47.219Z,5.10
2022-08-19T03:54:15.891Z,5.43
2022-08-19T03:56:44.282Z,5.70
2022-08-19T03:59:14.554Z,5.00
2022-08-19T04:01:42.284Z,4.57
2022-08-19T04:04:10.374Z,5.03
2022-08-19T04:06:39.860Z,5.13
2022-08-19T04:09:09.533Z,5.53
2022-08-19T04:11:45.431Z,6.05
2022-08-19T04:14:15.317Z,6.18
2022-08-19T04:16:44.327Z,5.13
2022-08-19T04:19:13.198Z,5.25
2022-08-19T04:21:41.543Z,6.03
2022-08-19T04:24:10.641Z,6.25
2022-08-19T04:26:38.919Z,5.35
2022-08-19T04:29:12.358Z,5.50
2022-08-19T04:31:40.973Z,5.63
2022-08-19T04:34:11.914Z,5.68
2022-08-19T04:36:42.158Z,5.75
2022-08-19T04:39:12.088Z,6.03
2022-08-19T04:41:58.681Z,5.40
2022-08-19T04:44:26.706Z,5.78
2022-08-19T04:46:54.653Z,5.88
2022-08-19T04:49:23.410Z,6.28
2022-08-19T04:51:53.371Z,6.22
2022-08-19T04:54:37.489Z,5.80
2022-08-19T04:57:11.308Z,5.35
2022-08-19T04:59:41.228Z,5.68
2022-08-19T05:02:10.520Z,5.70
2022-08-19T05:04:40.411Z,5.75
2022-08-19T05:07:11.339Z,5.50
2022-08-19T05:12:28.838Z,5.63
2022-08-19T05:14:58.156Z,6.03
2022-08-19T05:17:32.408Z,6.28
2022-08-19T05:20:24.662Z,6.03
2022-08-19T05:22:53.529Z,5.80
2022-08-19T05:25:26.762Z,6.10
2022-08-19T05:27:57.753Z,6.43
2022-08-19T05:30:37.598Z,5.72
2022-08-19T05:33:13.629Z,6.43
2022-08-19T05:35:42.134Z,6.65
2022-08-19T05:38:10.123Z,6.75
2022-08-19T05:40:38.150Z,6.63
2022-08-19T05:43:07.117Z,7.85
2022-08-19T05:45:35.153Z,7.18
2022-08-19T05:48:02.855Z,7.50
2022-08-19T05:50:31.206Z,7.03
2022-08-19T05:52:58.956Z,8.13
2022-08-19T05:55:26.802Z,7.28
2022-08-19T05:57:54.721Z,7.90
2022-08-19T06:00:24.550Z,6.50
2022-08-19T06:02:52.973Z,7.23
2022-08-19T06:05:21.083Z,7.40
2022-08-19T06:07:49.010Z,7.72
2022-08-19T06:10:16.852Z,7.30
2022-08-19T06:12:44.825Z,7.32
2022-08-19T06:15:14.482Z,7.68
2022-08-19T06:17:42.981Z,8.52
2022-08-19T06:20:14.152Z,8.13
2022-08-19T06:22:48.041Z,7.50
2022-08-19T06:25:15.964Z,8.77
2022-08-19T06:28:14.462Z,7.93
2022-08-19T06:30:31.699Z,8.15
2022-08-19T06:32:59.969Z,7.28
2022-08-19T06:35:28.050Z,8.02
2022-08-19T06:37:56.142Z,8.73
2022-08-19T06:40:24.368Z,8.05
2022-08-19T06:42:54.991Z,8.05
2022-08-19T06:45:35.456Z,8.13
2022-08-19T06:48:07.993Z,7.38
2022-08-19T06:50:36.724Z,8.85
2022-08-19T06:53:07.384Z,7.43
2022-08-19T06:55:34.972Z,7.75
2022-08-19T06:58:05.134Z,9.10
2022-08-19T07:00:33.227Z,8.20
2022-08-19T07:03:05.988Z,9.77
2022-08-19T07:05:39.744Z,8.85
2022-08-19T07:08:08.515Z,9.05
2022-08-19T07:10:37.472Z,9.13
2022-08-19T07:13:10.563Z,9.60
2022-08-19T07:15:39.764Z,9.18
2022-08-19T07:18:07.772Z,9.00
2022-08-19T07:20:43.846Z,8.27
2022-08-19T07:23:16.077Z,7.82
2022-08-19T07:25:44.659Z,8.95
2022-08-19T07:28:24.213Z,8.93
2022-08-19T07:30:53.024Z,10.27
2022-08-19T07:33:20.853Z,9.20
2022-08-19T07:35:48.747Z,8.93
2022-08-19T07:38:17.070Z,9.52
2022-08-19T07:40:47.214Z,10.73
2022-08-19T07:43:17.360Z,10.27
2022-08-19T07:45:46.888Z,10.60
2022-08-19T07:48:15.460Z,9.35
2022-08-19T07:50:43.540Z,9.80
2022-08-19T07:53:12.964Z,10.73
2022-08-19T07:55:43.927Z,12.55
2022-08-19T07:58:18.486Z,11.38
2022-08-19T08:00:47.087Z,11.40
2022-08-19T08:03:15.490Z,11.75
2022-08-19T08:06:02.470Z,11.23
2022-08-19T08:08:49.710Z,11.23
2022-08-19T08:11:49.241Z,11.75
2022-08-19T08:14:28.940Z,11.60
2022-08-19T08:16:57.539Z,11.82
2022-08-19T08:19:27.907Z,13.00
2022-08-19T08:21:59.137Z,11.82
2022-08-19T08:24:28.676Z,12.93
2022-08-19T08:26:58.031Z,11.52
2022-08-19T08:29:26.911Z,11.55
2022-08-19T08:32:03.070Z,11.95
2022-08-19T08:34:31.150Z,11.52
2022-08-19T08:36:58.818Z,11.75
2022-08-19T08:39:26.725Z,12.20
2022-08-19T08:41:57.754Z,12.38
2022-08-19T08:44:33.520Z,12.52
2022-08-19T08:47:03.484Z,12.88
2022-08-19T08:49:53.067Z,11.83
2022-08-19T08:52:32.112Z,11.88
2022-08-19T08:55:03.435Z,11.43
2022-08-19T08:57:42.444Z,10.98
2022-08-19T09:00:22.350Z,11.25
2022-08-19T09:02:53.355Z,12.75
2022-08-19T09:05:26.044Z,12.27
2022-08-19T09:08:01.197Z,12.93
2022-08-19T09:10:58.703Z,12.32
2022-08-19T09:13:26.823Z,12.05
2022-08-19T09:16:00.745Z,12.00
2022-08-19T09:18:40.317Z,13.02
2022-08-19T09:21:09.819Z,12.98
2022-08-19T09:23:39.261Z,12.52
2022-08-19T09:26:16.319Z,12.15
2022-08-19T09:28:45.609Z,12.98
2022-08-19T09:31:21.626Z,13.18
2022-08-19T09:33:52.279Z,13.15
2022-08-19T09:36:31.279Z,12.38
2022-08-19T09:39:02.823Z,13.80
2022-08-19T09:41:30.567Z,13.77
2022-08-19T09:43:59.496Z,13.20
2022-08-19T09:46:30.151Z,13.50
2022-08-19T09:49:06.383Z,14.05
2022-08-19T09:51:35.230Z,15.75
2022-08-19T09:54:04.873Z,14.85
2022-08-19T09:56:34.179Z,14.63
2022-08-19T09:59:02.841Z,15.25
2022-08-19T10:02:10.914Z,16.70
2022-08-19T10:05:00.770Z,14.45
2022-08-19T10:07:36.485Z,15.40
2022-08-19T10:10:06.637Z,14.10
2022-08-19T10:12:38.089Z,15.10
2022-08-19T10:15:07.257Z,15.55
2022-08-19T10:17:36.512Z,16.65
2022-08-19T10:20:05.775Z,16.55
2022-08-19T10:22:34.900Z,17.02
2022-08-19T10:25:03.107Z,16.30
2022-08-19T10:27:32.124Z,18.02
2022-08-19T10:30:00.037Z,15.68
2022-08-19T10:32:33.941Z,17.38
2022-08-19T10:35:02.597Z,15.82
2022-08-19T10:37:33.877Z,16.88
2022-08-19T10:40:03.206Z,16.63
2022-08-19T10:42:32.504Z,17.23
2022-08-19T10:45:00.351Z,18.40
2022-08-19T10:47:31.582Z,17.70
2022-08-19T10:52:48.941Z,17.83
2022-08-19T10:55:38.876Z,18.63
2022-08-19T10:58:11.602Z,19.45
2022-08-19T11:00:39.382Z,18.38
2022-08-19T11:03:07.154Z,18.85
2022-08-19T11:05:39.960Z,18.65
2022-08-19T11:08:22.228Z,19.13
2022-08-19T11:10:52.642Z,20.45
2022-08-19T11:13:20.609Z,17.85
2022-08-19T11:15:48.619Z,19.25
2022-08-19T11:18:18.201Z,18.98
2022-08-19T11:20:46.252Z,18.40
2022-08-19T11:23:13.957Z,18.15
2022-08-19T11:25:42.616Z,17.40
2022-08-19T11:28:10.696Z,19.20
2022-08-19T11:30:39.272Z,19.52
2022-08-19T11:33:06.997Z,20.25
2022-08-19T11:35:34.805Z,20.65
2022-08-19T11:38:07.172Z,19.58
2022-08-19T11:40:37.297Z,19.63
2022-08-19T11:43:05.779Z,18.17
2022-08-19T11:45:34.237Z,19.25
2022-08-19T11:48:02.679Z,18.55
2022-08-19T11:50:30.451Z,19.23
2022-08-19T11:52:59.081Z,18.73
2022-08-19T11:55:27.553Z,18.58
2022-08-19T11:57:55.898Z,17.17
2022-08-19T12:00:23.903Z,17.88
2022-08-19T12:02:52.105Z,17.65
2022-08-19T12:05:19.996Z,17.52
2022-08-19T12:07:47.831Z,17.42
2022-08-19T12:10:16.116Z,16.42
2022-08-19T12:12:58.914Z,17.08
2022-08-19T12:15:29.243Z,17.35
2022-08-19T12:18:05.740Z,15.38
2022-08-19T12:20:36.400Z,16.80
2022-08-19T12:23:04.897Z,16.65
2022-08-19T12:25:33.822Z,17.30
2022-08-19T12:28:02.246Z,15.45
2022-08-19T12:30:31.768Z,14.52
2022-08-19T12:33:00.518Z,14.95
2022-08-19T12:35:28.439Z,14.82
2022-08-19T12:37:57.520Z,15.23
2022-08-19T12:40:26.305Z,14.73
2022-08-19T12:42:55.202Z,14.52
2022-08-19T12:45:23.793Z,13.70
2022-08-19T12:47:55.263Z,13.27
2022-08-19T12:50:26.070Z,14.38
2022-08-19T12:52:53.927Z,15.15
2022-08-19T12:55:21.877Z,14.30
2022-08-19T12:57:50.349Z,16.70
2022-08-19T13:00:19.378Z,18.33
2022-08-19T13:02:48.227Z,17.90
2022-08-19T13:05:17.683Z,21.05
2022-08-19T13:07:45.651Z,21.45
2022-08-19T13:10:16.487Z,20.65
2022-08-19T13:12:44.678Z,20.13
2022-08-19T13:15:13.033Z,20.75
2022-08-19T13:17:43.222Z,20.67
2022-08-19T13:20:12.275Z,20.33
2022-08-19T13:22:41.202Z,20.83
2022-08-19T13:25:09.291Z,21.65
2022-08-19T13:27:38.033Z,19.50
2022-08-19T13:30:25.422Z,19.63
2022-08-19T13:33:11.733Z,18.92
2022-08-19T13:35:41.009Z,20.40
2022-08-19T13:38:12.129Z,20.17
2022-08-19T13:40:41.381Z,18.35
2022-08-19T13:43:17.473Z,19.95
2022-08-19T13:45:57.125Z,19.30
2022-08-19T13:48:27.749Z,19.48
2022-08-19T13:50:58.218Z,19.95
2022-08-19T13:53:27.079Z,19.55
2022-08-19T13:55:55.018Z,19.50
2022-08-19T13:58:23.576Z,18.08
2022-08-19T14:00:51.441Z,18.30
2022-08-19T14:03:19.917Z,19.60
2022-08-19T14:05:47.999Z,18.55
2022-08-19T14:08:15.922Z,18.63
2022-08-19T14:10:46.031Z,19.73
2022-08-19T14:13:18.098Z,18.92
2022-08-19T14:15:46.462Z,19.50
2022-08-19T14:18:15.572Z,21.20
2022-08-19T14:20:43.521Z,20.83
2022-08-19T14:23:14.771Z,20.83
2022-08-19T14:25:43.054Z,21.10
2022-08-19T14:28:10.969Z,20.40
2022-08-19T14:30:39.338Z,21.42
2022-08-19T14:33:08.264Z,19.70
2022-08-19T14:35:36.493Z,19.38
2022-08-19T14:38:05.891Z,17.45
2022-08-19T14:40:33.930Z,20.00
2022-08-19T14:43:04.787Z,16.88
2022-08-19T14:45:34.339Z,17.13
2022-08-19T14:48:02.114Z,13.70
2022-08-19T14:50:30.035Z,10.10
2022-08-19T14:53:09.381Z,11.02
2022-08-19T14:55:44.938Z,9.40
2022-08-19T14:58:28.322Z,9.77
2022-08-19T15:00:58.503Z,10.80
2022-08-19T15:03:27.067Z,10.95
2022-08-19T15:05:55.343Z,9.48
2022-08-19T15:08:25.807Z,10.90
2022-08-19T15:10:54.058Z,10.45
2022-08-19T15:13:22.211Z,10.80
2022-08-19T15:15:50.089Z,10.85
2022-08-19T15:18:17.745Z,11.25
2022-08-19T15:20:46.692Z,11.50
2022-08-19T15:23:18.331Z,10.45
2022-08-19T15:25:46.203Z,10.70
2022-08-19T15:28:14.126Z,9.77
2022-08-19T15:30:42.183Z,10.18
2022-08-19T15:33:14.180Z,9.68
2022-08-19T15:35:43.008Z,9.73
2022-08-19T15:38:11.176Z,11.02
2022-08-19T15:40:38.793Z,11.75
2022-08-19T15:43:06.577Z,11.05
2022-08-19T15:45:34.645Z,11.57
2022-08-19T15:48:03.802Z,10.98
2022-08-19T15:50:32.185Z,10.75
2022-08-19T15:53:02.603Z,12.57
2022-08-19T15:55:34.933Z,11.82
2022-08-19T15:58:29.328Z,11.93
2022-08-19T16:01:21.361Z,12.63
2022-08-19T16:04:11.322Z,13.27
2022-08-19T16:06:47.437Z,14.77
2022-08-19T16:09:15.790Z,16.67
2022-08-19T16:11:45.966Z,16.70
2022-08-19T16:14:18.663Z,18.60
2022-08-19T16:16:50.677Z,18.02
2022-08-19T16:19:20.148Z,18.95
2022-08-19T16:21:49.302Z,18.60
2022-08-19T16:24:18.296Z,17.92
2022-08-19T16:26:46.679Z,18.27
2022-08-19T16:29:33.367Z,17.60
2022-08-19T16:32:03.155Z,19.50
2022-08-19T16:34:31.876Z,18.33
2022-08-19T16:37:01.552Z,18.13
2022-08-19T16:39:29.452Z,19.33
2022-08-19T16:41:59.958Z,19.52
2022-08-19T16:44:31.302Z,19.83
2022-08-19T16:47:00.176Z,18.20
2022-08-19T16:49:54.007Z,17.08
2022-08-19T16:52:18.377Z,19.35
2022-08-19T16:54:47.076Z,19.95
2022-08-19T16:57:15.531Z,19.35
2022-08-19T16:59:48.879Z,20.45
2022-08-19T17:02:18.601Z,20.75
2022-08-19T17:04:57.333Z,19.23
2022-08-19T17:07:27.800Z,18.75
2022-08-19T17:09:55.836Z,19.65
2022-08-19T17:12:32.145Z,17.73
2022-08-19T17:15:01.150Z,17.83
2022-08-19T17:17:29.722Z,18.73
2022-08-19T17:19:59.188Z,18.92
2022-08-19T17:22:27.488Z,19.77
2022-08-19T17:24:56.390Z,18.02
2022-08-19T17:27:26.810Z,19.52
2022-08-19T17:30:00.059Z,19.58
2022-08-19T17:32:28.799Z,19.02
2022-08-19T17:34:56.721Z,19.13
2022-08-19T17:37:24.362Z,20.42
2022-08-19T17:39:52.395Z,21.80
2022-08-19T17:42:20.338Z,22.33
2022-08-19T17:44:50.883Z,22.05
2022-08-19T17:47:21.518Z,21.80
2022-08-19T17:49:49.769Z,21.42
2022-08-19T17:52:17.437Z,22.48
2022-08-19T17:54:45.676Z,21.02
2022-08-19T17:57:14.067Z,21.13
2022-08-19T17:59:41.801Z,20.27
2022-08-19T18:02:10.676Z,19.98
2022-08-19T18:04:39.097Z,17.77
2022-08-19T18:07:07.008Z,17.80
2022-08-19T18:09:41.414Z,19.08
2022-08-19T18:12:12.007Z,16.85
2022-08-19T18:14:40.059Z,17.95
2022-08-19T18:17:10.141Z,18.65
2022-08-19T18:19:41.429Z,17.95
2022-08-19T18:22:11.749Z,19.45
2022-08-19T18:24:41.046Z,19.08
2022-08-19T18:27:10.003Z,17.52
2022-08-19T18:29:38.713Z,18.00
2022-08-19T18:32:12.778Z,19.00
2022-08-19T18:34:41.888Z,18.65
2022-08-19T18:37:10.145Z,17.17
2022-08-19T18:40:07.207Z,18.65
2022-08-19T18:42:55.023Z,18.40
2022-08-19T18:45:43.670Z,19.23
2022-08-19T18:48:30.191Z,19.35
2022-08-19T18:50:58.871Z,19.08
2022-08-19T18:53:27.622Z,21.30
2022-08-19T18:55:55.726Z,20.92
2022-08-19T18:58:26.451Z,20.60
2022-08-19T19:00:56.831Z,23.35
2022-08-19T19:03:25.625Z,22.33
2022-08-19T19:05:53.783Z,22.98
2022-08-19T19:08:27.029Z,24.48
2022-08-19T19:10:56.040Z,23.00
2022-08-19T19:13:23.796Z,22.77
2022-08-19T19:15:51.634Z,23.63
2022-08-19T19:18:19.225Z,23.50
2022-08-19T19:20:47.022Z,24.45
2022-08-19T19:23:14.650Z,25.15
2022-08-19T19:25:50.474Z,24.90
2022-08-19T19:28:25.427Z,25.60
2022-08-19T19:30:54.084Z,26.00
2022-08-19T19:33:21.933Z,25.23
2022-08-19T19:35:49.649Z,26.83
2022-08-19T19:38:17.453Z,25.38
2022-08-19T19:40:45.553Z,26.50
2022-08-19T19:43:16.880Z,27.90
2022-08-19T19:45:44.820Z,27.35
2022-08-19T19:48:13.671Z,28.10
2022-08-19T19:50:41.731Z,27.30
2022-08-19T19:53:09.805Z,28.15
2022-08-19T19:55:37.613Z,29.17
2022-08-19T19:58:07.099Z,29.30
2022-08-19T20:00:37.421Z,28.10
2022-08-19T20:03:05.957Z,30.10
2022-08-19T20:05:33.655Z,29.95
2022-08-19T20:08:19.949Z,29.17
2022-08-19T20:10:47.601Z,30.75
2022-08-19T20:13:17.985Z,28.00
2022-08-19T20:15:45.784Z,32.10
2022-08-19T20:18:14.782Z,32.75
2022-08-19T20:20:43.294Z,34.60
2022-08-19T20:23:10.994Z,33.58
2022-08-19T20:25:39.415Z,37.00
2022-08-19T20:28:07.126Z,34.95
2022-08-19T20:30:34.982Z,38.90
2022-08-19T20:33:06.856Z,33.10
2022-08-19T20:35:35.440Z,36.17
2022-08-19T20:38:03.712Z,37.67
2022-08-19T20:40:34.166Z,36.55
2022-08-19T20:43:02.367Z,37.42
2022-08-19T20:45:32.968Z,33.95
2022-08-19T20:48:03.466Z,31.42
2022-08-19T20:50:32.628Z,32.25
2022-08-19T20:53:00.659Z,24.73
2022-08-19T20:55:30.647Z,25.25
2022-08-19T20:57:58.844Z,24.93
2022-08-19T21:00:26.587Z,23.45
2022-08-19T21:02:54.429Z,21.67
2022-08-19T21:05:22.227Z,19.55
2022-08-19T21:07:50.051Z,20.35
2022-08-19T21:10:17.952Z,21.08
2022-08-19T21:12:46.417Z,21.88
2022-08-19T21:15:14.285Z,21.92
2022-08-19T21:17:42.362Z,21.92
2022-08-19T21:20:10.169Z,24.20
2022-08-19T21:22:38.090Z,26.08
2022-08-19T21:25:06.141Z,26.08
2022-08-19T21:27:34.140Z,24.70
2022-08-19T21:30:01.798Z,24.27
2022-08-19T21:32:29.690Z,24.60
2022-08-19T21:34:57.394Z,24.48
2022-08-19T21:37:26.149Z,22.80
2022-08-19T21:39:54.879Z,24.02
2022-08-19T21:42:23.505Z,21.70
2022-08-19T21:44:51.213Z,21.20
2022-08-19T21:47:19.108Z,23.02
2022-08-19T21:49:46.844Z,23.50
2022-08-19T21:52:14.848Z,24.05
2022-08-19T21:54:42.538Z,21.15
2022-08-19T21:57:10.981Z,20.35
2022-08-19T21:59:43.932Z,20.02
2022-08-19T22:02:21.321Z,19.92
2022-08-19T22:04:53.264Z,19.15
2022-08-19T22:07:21.706Z,20.73
2022-08-19T22:09:50.225Z,19.52
2022-08-19T22:12:23.520Z,22.42
2022-08-19T22:14:51.734Z,21.13
2022-08-19T22:17:19.637Z,20.58
2022-08-19T22:19:47.622Z,21.73
2022-08-19T22:22:20.157Z,22.50
2022-08-19T22:24:48.204Z,22.60
2022-08-19T22:27:15.834Z,22.00
2022-08-19T22:29:43.688Z,21.85
2022-08-19T22:32:26.501Z,21.63
2022-08-19T22:34:58.317Z,22.58
2022-08-19T22:37:26.794Z,22.85
2022-08-19T22:39:54.652Z,22.35
2022-08-19T22:42:23.046Z,27.55
2022-08-19T22:44:50.754Z,26.98
2022-08-19T22:47:19.551Z,26.95
2022-08-19T22:49:47.276Z,26.52
2022-08-19T22:52:19.833Z,26.75
2022-08-19T22:54:47.524Z,26.60
2022-08-19T22:57:15.398Z,26.25
2022-08-19T22:59:43.424Z,25.58
2022-08-19T23:02:11.937Z,24.42
2022-08-19T23:04:39.653Z,24.25
2022-08-19T23:07:08.488Z,21.73
2022-08-19T23:09:36.110Z,22.50
2022-08-19T23:12:04.525Z,21.27
2022-08-19T23:14:32.579Z,23.15
2022-08-19T23:17:01.372Z,24.10
2022-08-19T23:19:29.751Z,25.67
2022-08-19T23:21:57.740Z,26.10
2022-08-19T23:24:25.485Z,22.15
2022-08-19T23:27:11.927Z,20.80
2022-08-19T23:29:58.326Z,22.90
2022-08-19T23:32:26.282Z,23.85
2022-08-19T23:34:55.942Z,23.88
2022-08-19T23:37:25.244Z,26.15
2022-08-19T23:39:52.935Z,25.92
2022-08-19T23:42:20.709Z,25.23
2022-08-19T23:44:52.195Z,26.85
2022-08-19T23:47:21.405Z,27.25
2022-08-19T23:49:49.223Z,27.17
2022-08-19T23:52:17.094Z,25.40
2022-08-19T23:54:44.852Z,27.40
2022-08-19T23:57:14.720Z,25.95
2022-08-19T23:59:43.059Z,24.13
